KAHQ

Wahoo Municipal Airport

Wahoo, Nebraska, USA
METAR KAHQ 150315Z AUTO 07005KT 10SM CLR 21/19 A2991 RMK AO2 T02050190
Observed Flight Rules
Aug-15 @ 03:15 UTC (20 minutes ago) Visual Flight Rules
Wind Visibility Clouds
70° at 5 knots 10 miles
  • Clear skies
Temperatures Readings
Current 21°C / 70°F
Dewpoint 19°C / 66°F
Humidity 88%
Altimeter 29.91" Hg
Pressure 1013 hPa
Elevation 374
METAR KAHQ 150315Z AUTO 07005KT 10SM CLR 21/19 A2991 RMK AO2 T02050190
Observed Flight Rules
Aug-15 @ 03:15 UTC
(20 minutes ago)
VFR
Wind Visibility
70° at 5 knots 10 miles
Clouds
  • Clear skies
Temperature Dewpoint
21°C / 70°F 19°C / 66°F
Humidity Altimeter Pressure
88% 29.91" Hg 1013 hPa